createdAt,value
2018-12-02T00:00:41.789Z,59.80
2018-12-02T00:03:14.136Z,59.10
2018-12-02T00:05:46.636Z,58.90
2018-12-02T00:08:19.081Z,58.20
2018-12-02T00:10:51.606Z,58.10
2018-12-02T00:13:23.584Z,58.40
2018-12-02T00:15:56.053Z,57.20
2018-12-02T00:18:28.405Z,58.60
2018-12-02T00:21:00.579Z,60.20
2018-12-02T00:23:32.989Z,60.80
2018-12-02T00:26:05.332Z,61.10
2018-12-02T00:28:38.006Z,61.10
2018-12-02T00:31:10.941Z,62.10
2018-12-02T00:33:43.102Z,63.20
2018-12-02T00:36:15.283Z,64.00
2018-12-02T00:38:47.542Z,65.80
2018-12-02T00:41:20.077Z,67.30
2018-12-02T00:43:52.431Z,67.90
2018-12-02T00:46:24.966Z,68.20
2018-12-02T00:48:57.700Z,68.60
2018-12-02T00:51:29.998Z,68.80
2018-12-02T00:54:02.597Z,69.30
2018-12-02T00:56:35.874Z,69.40
2018-12-02T00:59:08.398Z,69.60
2018-12-02T01:01:41.060Z,69.60
2018-12-02T01:04:13.570Z,69.40
2018-12-02T01:06:45.913Z,70.40
2018-12-02T01:09:18.379Z,70.40
2018-12-02T01:11:50.717Z,71.10
2018-12-02T01:14:23.238Z,72.40
2018-12-02T01:16:55.346Z,72.30
2018-12-02T01:19:27.765Z,72.50
2018-12-02T01:21:59.825Z,73.70
2018-12-02T01:24:32.232Z,75.00
2018-12-02T01:27:04.589Z,74.80
2018-12-02T01:29:36.951Z,75.70
2018-12-02T01:32:09.275Z,75.60
2018-12-02T01:34:41.901Z,76.20
2018-12-02T01:37:14.845Z,76.60
2018-12-02T01:39:47.393Z,77.30
2018-12-02T01:42:20.193Z,77.50
2018-12-02T01:44:52.616Z,78.60
2018-12-02T01:47:25.130Z,79.00
2018-12-02T01:49:57.335Z,79.70
2018-12-02T01:52:29.296Z,79.90
2018-12-02T01:55:01.491Z,80.00
2018-12-02T01:57:33.799Z,80.20
2018-12-02T02:00:13.437Z,80.20
2018-12-02T02:02:45.968Z,80.40
2018-12-02T02:05:19.544Z,80.30
2018-12-02T02:07:51.859Z,80.50
2018-12-02T02:10:30.044Z,81.20
2018-12-02T02:13:02.399Z,81.70
2018-12-02T02:15:34.730Z,81.80
2018-12-02T02:18:07.531Z,82.10
2018-12-02T02:20:40.110Z,82.00
2018-12-02T02:23:12.310Z,81.90
2018-12-02T02:25:44.648Z,82.30
2018-12-02T02:28:17.775Z,82.40
2018-12-02T02:30:50.474Z,82.40
2018-12-02T02:33:22.733Z,82.20
2018-12-02T02:35:55.161Z,82.10
2018-12-02T02:38:27.573Z,81.60
2018-12-02T02:41:00.171Z,81.30
2018-12-02T02:43:32.516Z,82.00
2018-12-02T02:46:04.940Z,81.10
2018-12-02T02:48:37.288Z,81.40
2018-12-02T02:51:09.680Z,81.50
2018-12-02T02:53:42.207Z,82.60
2018-12-02T02:56:14.414Z,83.20
2018-12-02T02:58:46.925Z,83.90
2018-12-02T03:01:19.365Z,84.50
2018-12-02T03:03:51.963Z,84.60
2018-12-02T03:06:24.328Z,84.20
2018-12-02T03:08:56.668Z,84.00
2018-12-02T03:11:29.363Z,84.30
2018-12-02T03:14:01.595Z,84.60
2018-12-02T03:16:33.854Z,84.90
2018-12-02T03:19:06.329Z,85.00
2018-12-02T03:21:38.905Z,84.70
2018-12-02T03:24:11.399Z,84.50
2018-12-02T03:26:43.684Z,85.30
2018-12-02T03:29:15.700Z,85.60
2018-12-02T03:31:53.488Z,85.80
2018-12-02T03:34:26.346Z,85.60
2018-12-02T03:36:58.890Z,85.70
2018-12-02T03:39:31.332Z,85.70
2018-12-02T03:42:05.112Z,86.00
2018-12-02T03:44:38.121Z,85.50
2018-12-02T03:47:11.464Z,85.30
2018-12-02T03:49:44.912Z,85.60
2018-12-02T03:52:18.269Z,85.50
2018-12-02T03:54:50.929Z,85.00
2018-12-02T03:57:22.825Z,84.20
2018-12-02T03:59:55.341Z,84.20
2018-12-02T04:02:28.010Z,84.00
2018-12-02T04:05:00.408Z,84.00
2018-12-02T04:07:32.722Z,83.70
2018-12-02T04:10:05.428Z,83.30
2018-12-02T04:12:38.438Z,83.60
2018-12-02T04:15:14.195Z,84.40
2018-12-02T04:17:46.929Z,84.10
2018-12-02T04:20:19.954Z,84.00
2018-12-02T04:22:53.239Z,84.40
2018-12-02T04:25:27.207Z,84.80
2018-12-02T04:27:59.356Z,84.80
2018-12-02T04:30:31.502Z,85.20
2018-12-02T04:33:03.307Z,84.80
2018-12-02T04:35:35.256Z,84.70
2018-12-02T04:38:07.234Z,85.20
2018-12-02T04:40:39.589Z,84.70
2018-12-02T04:43:12.197Z,84.70
2018-12-02T04:45:44.638Z,84.80
2018-12-02T04:48:16.951Z,84.90
2018-12-02T04:50:49.954Z,84.80
2018-12-02T04:53:21.999Z,84.50
2018-12-02T04:55:54.065Z,84.50
2018-12-02T04:58:27.255Z,84.20
2018-12-02T05:01:00.044Z,83.30
2018-12-02T05:03:32.798Z,83.60
2018-12-02T05:06:04.971Z,83.70
2018-12-02T05:08:37.555Z,83.70
2018-12-02T05:11:09.828Z,83.10
2018-12-02T05:13:42.683Z,83.10
2018-12-02T05:16:15.723Z,82.60
2018-12-02T05:18:48.026Z,81.90
2018-12-02T05:21:20.404Z,82.00
2018-12-02T05:23:53.622Z,81.90
2018-12-02T05:26:25.931Z,82.20
2018-12-02T05:28:58.091Z,82.50
2018-12-02T05:31:30.607Z,82.40
2018-12-02T05:34:02.960Z,81.80
2018-12-02T05:36:35.712Z,82.40
2018-12-02T05:39:10.262Z,82.30
2018-12-02T05:41:47.036Z,82.20
2018-12-02T05:44:19.184Z,82.40
2018-12-02T05:46:52.555Z,82.20
2018-12-02T05:49:24.671Z,82.40
2018-12-02T05:51:56.858Z,81.80
2018-12-02T05:54:28.747Z,81.70
2018-12-02T05:57:00.616Z,81.80
2018-12-02T05:59:33.134Z,81.50
2018-12-02T06:02:05.292Z,81.70
2018-12-02T06:04:37.474Z,81.90
2018-12-02T06:07:09.809Z,82.00
2018-12-02T06:09:42.206Z,81.70
2018-12-02T06:12:14.120Z,81.70
2018-12-02T06:14:46.024Z,82.10
2018-12-02T06:17:18.408Z,82.00
2018-12-02T06:19:51.002Z,82.20
2018-12-02T06:22:22.952Z,82.20
2018-12-02T06:24:55.314Z,82.60
2018-12-02T06:27:27.920Z,82.80
2018-12-02T06:30:00.487Z,82.70
2018-12-02T06:32:33.044Z,83.30
2018-12-02T06:35:05.629Z,83.30
2018-12-02T06:37:37.951Z,83.00
2018-12-02T06:40:14.171Z,82.90
2018-12-02T06:42:46.551Z,83.30
2018-12-02T06:45:18.999Z,83.00
2018-12-02T06:47:51.120Z,82.90
2018-12-02T06:50:28.903Z,82.80
2018-12-02T06:53:01.415Z,82.60
2018-12-02T06:55:52.723Z,82.50
2018-12-02T06:58:33.135Z,82.70
2018-12-02T07:01:16.268Z,82.40
2018-12-02T07:04:02.842Z,82.30
2018-12-02T07:06:35.092Z,81.80
2018-12-02T07:09:09.112Z,81.80
2018-12-02T07:11:41.476Z,81.20
2018-12-02T07:14:13.766Z,81.10
2018-12-02T07:16:46.652Z,81.00
2018-12-02T07:19:22.849Z,81.00
2018-12-02T07:21:59.089Z,81.60
2018-12-02T07:24:34.625Z,81.10
2018-12-02T07:27:07.260Z,81.10
2018-12-02T07:29:40.030Z,80.60
2018-12-02T07:32:12.383Z,80.40
2018-12-02T07:34:44.932Z,80.40
2018-12-02T07:37:19.195Z,80.50
2018-12-02T07:40:12.012Z,80.30
2018-12-02T07:42:44.571Z,80.80
2018-12-02T07:45:16.959Z,80.90
2018-12-02T07:47:49.415Z,81.10
2018-12-02T07:50:22.071Z,81.20
2018-12-02T07:52:54.228Z,81.30
2018-12-02T07:55:27.008Z,81.50
2018-12-02T07:57:59.436Z,81.50
2018-12-02T08:00:31.705Z,81.70
2018-12-02T08:03:05.485Z,81.50
2018-12-02T08:05:38.003Z,81.90
2018-12-02T08:08:10.455Z,82.40
2018-12-02T08:10:42.769Z,82.10
2018-12-02T08:13:15.182Z,82.00
2018-12-02T08:15:47.465Z,82.20
2018-12-02T08:18:19.505Z,82.30
2018-12-02T08:20:51.669Z,82.40
2018-12-02T08:23:24.047Z,82.40
2018-12-02T08:25:56.416Z,82.60
2018-12-02T08:28:28.940Z,82.70
2018-12-02T08:31:01.312Z,82.50
2018-12-02T08:33:33.582Z,82.50
2018-12-02T08:36:05.999Z,82.60
2018-12-02T08:38:38.164Z,82.10
2018-12-02T08:41:10.493Z,82.40
2018-12-02T08:43:42.918Z,82.70
2018-12-02T08:46:15.231Z,82.70
2018-12-02T08:48:47.772Z,82.80
2018-12-02T08:51:20.046Z,83.00
2018-12-02T08:53:52.380Z,82.80
2018-12-02T08:56:24.352Z,82.80
2018-12-02T08:58:56.641Z,82.90
2018-12-02T09:01:28.727Z,83.00
2018-12-02T09:04:01.289Z,83.10
2018-12-02T09:06:33.676Z,83.10
2018-12-02T09:09:07.944Z,83.40
2018-12-02T09:11:40.060Z,83.80
2018-12-02T09:14:12.555Z,84.00
2018-12-02T09:16:44.893Z,83.90
2018-12-02T09:19:17.145Z,84.30
2018-12-02T09:21:49.434Z,84.50
2018-12-02T09:24:21.598Z,84.50
2018-12-02T09:26:53.821Z,84.50
2018-12-02T09:29:26.210Z,84.20
2018-12-02T09:31:58.391Z,84.00
2018-12-02T09:34:30.638Z,84.10
2018-12-02T09:37:03.004Z,83.70
2018-12-02T09:39:35.325Z,83.40
2018-12-02T09:42:07.705Z,83.60
2018-12-02T09:44:40.071Z,83.80
2018-12-02T09:47:12.347Z,84.90
2018-12-02T09:49:45.142Z,84.60
2018-12-02T09:52:17.335Z,85.00
2018-12-02T09:54:49.469Z,85.50
2018-12-02T09:57:22.126Z,86.20
2018-12-02T09:59:54.248Z,86.20
2018-12-02T10:02:26.289Z,86.50
2018-12-02T10:04:58.587Z,86.70
2018-12-02T10:07:30.807Z,86.70
2018-12-02T10:10:03.140Z,86.90
2018-12-02T10:12:35.160Z,86.90
2018-12-02T10:15:08.426Z,86.00
2018-12-02T10:17:40.823Z,86.00
2018-12-02T10:20:15.750Z,85.70
2018-12-02T10:22:48.314Z,85.50
2018-12-02T10:25:21.200Z,85.80
2018-12-02T10:27:53.415Z,86.10
2018-12-02T10:30:26.600Z,85.70
2018-12-02T10:32:59.354Z,86.00
2018-12-02T10:35:31.722Z,87.00
2018-12-02T10:38:03.737Z,86.70
2018-12-02T10:40:35.988Z,87.00
2018-12-02T10:43:08.643Z,87.20
2018-12-02T10:45:40.917Z,87.20
2018-12-02T10:48:13.807Z,87.10
2018-12-02T10:50:46.302Z,87.00
2018-12-02T10:53:20.792Z,87.00
2018-12-02T10:55:53.999Z,87.30
2018-12-02T10:58:27.920Z,86.60
2018-12-02T11:01:05.985Z,86.20
2018-12-02T11:03:38.596Z,86.50
2018-12-02T11:06:10.759Z,86.50
2018-12-02T11:08:42.739Z,85.30
2018-12-02T11:11:15.328Z,85.60
2018-12-02T11:13:47.344Z,85.00
2018-12-02T11:16:19.328Z,85.10
2018-12-02T11:18:51.259Z,84.00
2018-12-02T11:21:23.394Z,83.90
2018-12-02T11:23:55.885Z,84.60
2018-12-02T11:26:28.272Z,83.90
2018-12-02T11:29:00.527Z,83.90
2018-12-02T11:31:33.046Z,84.10
2018-12-02T11:34:05.368Z,84.00
2018-12-02T11:36:37.458Z,84.10
2018-12-02T11:39:11.797Z,84.40
2018-12-02T11:41:43.962Z,83.90
2018-12-02T11:44:16.665Z,83.80
2018-12-02T11:46:48.983Z,83.70
2018-12-02T11:49:21.275Z,83.60
2018-12-02T11:51:53.806Z,83.40
2018-12-02T11:54:26.136Z,82.80
2018-12-02T11:56:57.908Z,82.70
2018-12-02T11:59:30.092Z,82.40
2018-12-02T12:02:07.522Z,82.70
2018-12-02T12:04:35.476Z,83.00
2018-12-02T12:07:07.855Z,83.00
2018-12-02T12:09:40.051Z,83.30
2018-12-02T12:12:12.093Z,84.50
2018-12-02T12:14:44.402Z,85.40
2018-12-02T12:17:16.664Z,86.40
2018-12-02T12:19:48.946Z,86.80
2018-12-02T12:22:21.636Z,87.00
2018-12-02T12:24:54.115Z,87.10
2018-12-02T12:27:26.391Z,87.00
2018-12-02T12:29:58.712Z,87.20
2018-12-02T12:32:30.842Z,87.30
2018-12-02T12:35:03.134Z,87.30
2018-12-02T12:37:35.486Z,87.30
2018-12-02T12:40:25.872Z,87.10
2018-12-02T12:43:01.178Z,87.30
2018-12-02T12:45:33.563Z,87.30
2018-12-02T12:48:06.021Z,87.60
2018-12-02T12:50:38.107Z,88.00
2018-12-02T12:53:10.333Z,88.10
2018-12-02T12:55:42.838Z,88.10
2018-12-02T12:58:16.185Z,88.70
2018-12-02T13:00:48.364Z,89.40
2018-12-02T13:03:20.602Z,89.20
2018-12-02T13:05:52.717Z,89.00
2018-12-02T13:08:24.827Z,89.00
2018-12-02T13:10:56.939Z,89.60
2018-12-02T13:13:29.731Z,89.40
2018-12-02T13:16:02.200Z,89.40
2018-12-02T13:18:34.615Z,89.80
2018-12-02T13:21:06.726Z,90.00
2018-12-02T13:23:39.074Z,89.10
2018-12-02T13:26:11.183Z,89.20
2018-12-02T13:28:43.639Z,89.30
2018-12-02T13:31:15.745Z,89.00
2018-12-02T13:33:47.944Z,89.30
2018-12-02T13:36:20.118Z,88.80
2018-12-02T13:38:52.155Z,89.20
2018-12-02T13:41:24.574Z,89.30
2018-12-02T13:43:57.043Z,89.70
2018-12-02T13:46:29.354Z,89.70
2018-12-02T13:49:01.645Z,89.70
2018-12-02T13:51:33.755Z,89.80
2018-12-02T13:54:10.489Z,89.80
2018-12-02T13:56:42.400Z,89.50
2018-12-02T13:59:14.858Z,89.70
2018-12-02T14:01:48.132Z,89.70
2018-12-02T14:04:20.378Z,89.40
2018-12-02T14:06:52.721Z,89.80
2018-12-02T14:09:24.812Z,89.80
2018-12-02T14:11:57.363Z,89.80
2018-12-02T14:14:29.690Z,90.00
2018-12-02T14:17:07.788Z,90.00
2018-12-02T14:19:40.224Z,90.10
2018-12-02T14:22:12.709Z,90.10
2018-12-02T14:24:45.287Z,90.20
2018-12-02T14:27:17.346Z,90.20
2018-12-02T14:29:52.320Z,90.30
2018-12-02T14:32:25.103Z,90.40
2018-12-02T14:34:57.404Z,90.30
2018-12-02T14:37:29.841Z,90.30
2018-12-02T14:40:02.174Z,90.10
2018-12-02T14:42:34.508Z,90.30
2018-12-02T14:45:07.362Z,90.40
2018-12-02T14:47:39.867Z,90.40
2018-12-02T14:50:14.381Z,90.30
2018-12-02T14:52:47.251Z,90.30
2018-12-02T14:55:20.609Z,90.20
2018-12-02T14:57:52.834Z,90.10
2018-12-02T15:00:25.123Z,90.10
2018-12-02T15:02:57.619Z,90.20
2018-12-02T15:05:29.826Z,90.10
2018-12-02T15:08:01.922Z,90.20
2018-12-02T15:10:34.316Z,89.90
2018-12-02T15:13:07.310Z,89.90
2018-12-02T15:15:39.555Z,90.20
2018-12-02T15:18:11.417Z,90.10
2018-12-02T15:20:43.482Z,90.20
2018-12-02T15:23:15.795Z,90.30
2018-12-02T15:25:48.021Z,90.40
2018-12-02T15:28:20.346Z,90.60
2018-12-02T15:30:52.371Z,90.60
2018-12-02T15:33:24.818Z,90.40
2018-12-02T15:35:57.093Z,90.50
2018-12-02T15:38:29.553Z,90.50
2018-12-02T15:41:02.008Z,90.60
2018-12-02T15:43:34.145Z,90.40
2018-12-02T15:46:06.153Z,90.20
2018-12-02T15:48:39.211Z,90.10
2018-12-02T15:51:11.296Z,90.00
2018-12-02T15:53:43.842Z,90.10
2018-12-02T15:56:16.354Z,90.10
2018-12-02T15:58:49.584Z,89.50
2018-12-02T16:01:22.306Z,89.40
2018-12-02T16:03:54.593Z,89.20
2018-12-02T16:06:27.011Z,89.00
2018-12-02T16:08:59.130Z,88.70
2018-12-02T16:11:31.471Z,88.90
2018-12-02T16:14:03.607Z,88.70
2018-12-02T16:16:36.223Z,89.10
2018-12-02T16:19:08.322Z,89.00
2018-12-02T16:21:40.948Z,89.40
2018-12-02T16:24:13.407Z,89.50
2018-12-02T16:26:45.606Z,89.50
2018-12-02T16:29:17.779Z,89.60
2018-12-02T16:31:50.195Z,89.60
2018-12-02T16:34:22.344Z,89.80
2018-12-02T16:36:54.594Z,89.80
2018-12-02T16:39:26.959Z,89.90
2018-12-02T16:41:59.150Z,90.00
2018-12-02T16:44:31.209Z,90.00
2018-12-02T16:47:03.794Z,90.00
2018-12-02T16:49:36.133Z,90.00
2018-12-02T16:52:08.584Z,90.00
2018-12-02T16:54:40.593Z,90.20
2018-12-02T16:57:14.154Z,90.40
2018-12-02T16:59:47.032Z,90.30
2018-12-02T17:02:19.283Z,89.10
2018-12-02T17:04:51.463Z,89.50
2018-12-02T17:07:23.950Z,89.80
2018-12-02T17:09:56.349Z,90.00
2018-12-02T17:12:28.361Z,88.80
2018-12-02T17:15:00.384Z,88.60
2018-12-02T17:17:32.510Z,86.80
2018-12-02T17:20:04.900Z,86.70
2018-12-02T17:22:37.334Z,85.90
2018-12-02T17:25:11.459Z,83.20
2018-12-02T17:27:44.231Z,80.00
2018-12-02T17:30:19.761Z,79.60
2018-12-02T17:32:52.097Z,80.00
2018-12-02T17:35:25.463Z,78.60
2018-12-02T17:37:57.828Z,78.80
2018-12-02T17:40:30.090Z,79.40
2018-12-02T17:43:02.335Z,77.80
2018-12-02T17:45:34.480Z,76.40
2018-12-02T17:48:06.895Z,75.60
2018-12-02T17:50:39.505Z,77.00
2018-12-02T17:53:13.642Z,77.00
2018-12-02T17:55:46.115Z,75.40
2018-12-02T17:58:19.064Z,75.20
2018-12-02T18:00:51.154Z,73.70
2018-12-02T18:03:28.618Z,70.80
2018-12-02T18:06:01.226Z,72.10
2018-12-02T18:08:33.359Z,71.20
2018-12-02T18:11:05.537Z,71.20
2018-12-02T18:13:37.773Z,72.00
2018-12-02T18:16:10.116Z,71.40
2018-12-02T18:18:42.319Z,70.80
2018-12-02T18:21:14.626Z,69.60
2018-12-02T18:23:47.052Z,69.20
2018-12-02T18:26:19.527Z,70.10
2018-12-02T18:28:52.176Z,71.60
2018-12-02T18:31:24.191Z,71.10
2018-12-02T18:33:56.393Z,69.40
2018-12-02T18:36:32.595Z,69.50
2018-12-02T18:39:06.093Z,70.50
2018-12-02T18:41:41.484Z,68.90
2018-12-02T18:44:16.043Z,67.30
2018-12-02T18:46:48.534Z,67.00
2018-12-02T18:49:21.199Z,66.80
2018-12-02T18:51:52.927Z,68.10
2018-12-02T18:54:25.740Z,66.90
2018-12-02T18:56:58.744Z,66.80
2018-12-02T18:59:31.898Z,67.30
2018-12-02T19:02:04.226Z,60.70
2018-12-02T19:04:36.393Z,57.10
2018-12-02T19:07:08.796Z,56.60
2018-12-02T19:09:40.967Z,50.00
2018-12-02T19:12:13.303Z,40.50
2018-12-02T19:14:45.758Z,39.60
2018-12-02T19:17:18.072Z,35.70
2018-12-02T19:19:50.082Z,36.30
2018-12-02T19:22:22.444Z,36.70
2018-12-02T19:24:54.837Z,35.80
2018-12-02T19:27:27.132Z,37.00
2018-12-02T19:29:59.548Z,38.10
2018-12-02T19:32:31.506Z,40.20
2018-12-02T19:35:03.704Z,40.20
2018-12-02T19:37:35.770Z,40.50
2018-12-02T19:40:11.160Z,45.20
2018-12-02T19:42:44.155Z,44.10
2018-12-02T19:45:19.448Z,40.30
2018-12-02T19:47:51.949Z,41.80
2018-12-02T19:50:24.199Z,37.70
2018-12-02T19:52:56.732Z,34.20
2018-12-02T19:55:28.941Z,37.90
2018-12-02T19:58:02.174Z,34.70
2018-12-02T20:00:39.319Z,33.50
2018-12-02T20:03:13.010Z,34.10
2018-12-02T20:05:45.471Z,34.10
2018-12-02T20:08:19.105Z,37.10
2018-12-02T20:10:54.409Z,33.50
2018-12-02T20:13:26.729Z,34.30
2018-12-02T20:16:03.520Z,36.80
2018-12-02T20:18:35.988Z,37.60
2018-12-02T20:21:08.793Z,38.70
2018-12-02T20:23:45.543Z,36.00
2018-12-02T20:26:18.074Z,36.80
2018-12-02T20:28:52.761Z,39.10
2018-12-02T20:31:27.357Z,37.60
2018-12-02T20:33:59.932Z,41.00
2018-12-02T20:36:32.311Z,39.30
2018-12-02T20:39:06.211Z,35.70
2018-12-02T20:41:38.548Z,37.20
2018-12-02T20:44:10.756Z,37.30
2018-12-02T20:46:43.171Z,35.50
2018-12-02T20:49:15.681Z,35.80
2018-12-02T20:51:48.246Z,37.60
2018-12-02T20:54:20.685Z,41.10
2018-12-02T20:56:53.162Z,34.70
2018-12-02T20:59:25.772Z,38.40
2018-12-02T21:01:58.219Z,37.50
2018-12-02T21:04:30.579Z,36.80
2018-12-02T21:07:03.134Z,36.20
2018-12-02T21:09:35.343Z,37.50
2018-12-02T21:12:07.883Z,37.30
2018-12-02T21:14:40.110Z,37.80
2018-12-02T21:17:12.305Z,38.60
2018-12-02T21:19:44.598Z,40.60
2018-12-02T21:22:16.840Z,42.10
2018-12-02T21:24:49.496Z,38.40
2018-12-02T21:27:22.061Z,38.20
2018-12-02T21:29:54.221Z,38.30
2018-12-02T21:32:26.422Z,34.20
2018-12-02T21:34:58.810Z,35.80
2018-12-02T21:37:31.107Z,37.10
2018-12-02T21:40:03.417Z,38.90
2018-12-02T21:42:35.909Z,38.50
2018-12-02T21:45:10.219Z,38.10
2018-12-02T21:47:43.441Z,37.50
2018-12-02T21:50:18.439Z,37.00
2018-12-02T21:52:50.904Z,33.30
2018-12-02T21:55:23.270Z,34.00
2018-12-02T21:57:55.668Z,31.80
2018-12-02T22:00:33.218Z,35.80
2018-12-02T22:03:05.677Z,35.00
2018-12-02T22:05:37.986Z,34.90
2018-12-02T22:08:10.201Z,33.80
2018-12-02T22:10:42.479Z,34.50
2018-12-02T22:13:14.845Z,34.60
2018-12-02T22:15:47.332Z,37.80
2018-12-02T22:18:19.713Z,38.20
2018-12-02T22:20:52.323Z,39.30
2018-12-02T22:23:24.851Z,37.70
2018-12-02T22:25:57.521Z,40.00
2018-12-02T22:28:29.885Z,40.40
2018-12-02T22:31:02.299Z,40.10
2018-12-02T22:33:36.577Z,41.10
2018-12-02T22:36:14.040Z,41.80
2018-12-02T22:38:42.808Z,44.10
2018-12-02T22:41:15.469Z,45.00
2018-12-02T22:43:47.783Z,43.90
2018-12-02T22:46:20.601Z,45.50
2018-12-02T22:48:52.891Z,47.00
2018-12-02T22:51:26.162Z,47.60
2018-12-02T22:53:58.606Z,45.50
2018-12-02T22:56:31.142Z,39.20
2018-12-02T22:59:03.323Z,36.90
2018-12-02T23:03:46.009Z,36.70
2018-12-02T23:06:18.626Z,36.10
2018-12-02T23:08:50.514Z,33.80
2018-12-02T23:11:23.154Z,35.50
2018-12-02T23:13:55.453Z,35.80
2018-12-02T23:16:27.909Z,35.70
2018-12-02T23:19:00.359Z,35.70
2018-12-02T23:21:32.449Z,37.50
2018-12-02T23:24:04.942Z,39.70
2018-12-02T23:26:36.751Z,38.80
2018-12-02T23:29:09.333Z,39.00
2018-12-02T23:31:41.513Z,40.40
2018-12-02T23:34:14.797Z,41.90
2018-12-02T23:36:46.840Z,42.00
2018-12-02T23:39:19.368Z,42.20
2018-12-02T23:41:51.800Z,43.10
2018-12-02T23:44:24.244Z,42.90
2018-12-02T23:46:56.826Z,43.90
2018-12-02T23:49:29.173Z,44.80
2018-12-02T23:52:01.828Z,45.30
2018-12-02T23:54:34.117Z,45.10
2018-12-02T23:57:06.369Z,45.80
2018-12-02T23:59:38.870Z,46.60
